createdAt,value
2019-05-22T00:01:56.613Z,38.48
2019-05-22T00:04:31.566Z,35.95
2019-05-22T00:07:05.743Z,37.00
2019-05-22T00:09:38.925Z,40.25
2019-05-22T00:12:11.586Z,37.70
2019-05-22T00:14:41.679Z,38.45
2019-05-22T00:17:13.767Z,34.35
2019-05-22T00:19:44.400Z,34.95
2019-05-22T00:22:25.136Z,36.58
2019-05-22T00:24:56.351Z,36.65
2019-05-22T00:27:27.800Z,35.92
2019-05-22T00:29:57.982Z,34.80
2019-05-22T00:32:29.090Z,34.90
2019-05-22T00:34:58.691Z,34.33
2019-05-22T00:37:29.172Z,34.18
2019-05-22T00:40:00.786Z,35.30
2019-05-22T00:42:32.949Z,35.43
2019-05-22T00:45:02.580Z,33.13
2019-05-22T00:47:33.820Z,34.08
2019-05-22T00:50:05.097Z,32.80
2019-05-22T00:52:52.215Z,32.40
2019-05-22T00:55:24.504Z,33.48
2019-05-22T00:57:58.708Z,33.80
2019-05-22T01:00:45.261Z,33.15
2019-05-22T01:03:17.013Z,30.92
2019-05-22T01:05:48.170Z,31.60
2019-05-22T01:08:17.633Z,32.30
2019-05-22T01:10:50.940Z,31.87
2019-05-22T01:13:22.031Z,30.15
2019-05-22T01:15:52.080Z,31.97
2019-05-22T01:18:23.485Z,31.73
2019-05-22T01:20:55.333Z,31.93
2019-05-22T01:23:25.539Z,32.63
2019-05-22T01:25:56.169Z,33.60
2019-05-22T01:28:26.068Z,35.30
2019-05-22T01:30:58.344Z,36.85
2019-05-22T01:33:32.288Z,33.23
2019-05-22T01:36:03.403Z,34.67
2019-05-22T01:38:34.800Z,33.35
2019-05-22T01:41:23.548Z,34.13
2019-05-22T01:43:55.256Z,37.40
2019-05-22T01:46:25.867Z,37.50
2019-05-22T01:48:59.675Z,35.73
2019-05-22T01:51:29.339Z,36.30
2019-05-22T01:54:00.154Z,38.65
2019-05-22T01:56:30.768Z,39.42
2019-05-22T01:59:00.295Z,39.38
2019-05-22T02:01:32.408Z,39.30
2019-05-22T02:04:02.307Z,39.70
2019-05-22T02:06:32.898Z,41.23
2019-05-22T02:09:21.656Z,40.80
2019-05-22T02:11:54.380Z,41.08
2019-05-22T02:14:25.598Z,40.88
2019-05-22T02:16:58.250Z,42.73
2019-05-22T02:19:28.482Z,41.68
2019-05-22T02:21:59.831Z,39.00
2019-05-22T02:24:31.184Z,37.15
2019-05-22T02:27:02.298Z,36.35
2019-05-22T02:29:32.927Z,37.70
2019-05-22T02:32:02.393Z,32.67
2019-05-22T02:34:32.433Z,36.40
2019-05-22T02:37:02.206Z,35.38
2019-05-22T02:39:33.142Z,39.42
2019-05-22T02:42:06.661Z,37.48
2019-05-22T02:44:38.693Z,36.08
2019-05-22T02:47:19.211Z,35.83
2019-05-22T02:49:43.505Z,36.75
2019-05-22T02:52:15.274Z,38.10
2019-05-22T02:54:45.458Z,34.45
2019-05-22T02:57:15.476Z,35.98
2019-05-22T03:02:26.532Z,31.70
2019-05-22T03:05:11.280Z,33.58
2019-05-22T03:07:41.926Z,33.42
2019-05-22T03:10:13.241Z,32.03
2019-05-22T03:12:45.653Z,32.65
2019-05-22T03:15:18.156Z,30.90
2019-05-22T03:17:50.017Z,33.53
2019-05-22T03:20:21.026Z,34.00
2019-05-22T03:22:57.278Z,30.52
2019-05-22T03:25:28.499Z,32.67
2019-05-22T03:27:58.731Z,33.60
2019-05-22T03:30:32.727Z,33.30
2019-05-22T03:33:06.745Z,33.80
2019-05-22T03:35:39.338Z,30.27
2019-05-22T03:38:10.486Z,35.85
2019-05-22T03:40:41.217Z,34.50
2019-05-22T03:43:28.393Z,35.38
2019-05-22T03:46:00.769Z,33.75
2019-05-22T03:48:37.812Z,36.13
2019-05-22T03:51:14.311Z,39.38
2019-05-22T03:53:46.516Z,41.83
2019-05-22T03:56:17.816Z,38.95
2019-05-22T03:58:47.491Z,40.50
2019-05-22T04:01:18.775Z,42.13
2019-05-22T04:03:49.802Z,36.53
2019-05-22T04:06:20.998Z,40.33
2019-05-22T04:08:52.157Z,44.23
2019-05-22T04:11:23.195Z,40.65
2019-05-22T04:13:53.236Z,42.55
2019-05-22T04:16:24.411Z,41.23
2019-05-22T04:18:56.082Z,35.88
2019-05-22T04:21:25.791Z,38.92
2019-05-22T04:23:56.560Z,39.42
2019-05-22T04:26:28.499Z,39.80
2019-05-22T04:28:59.007Z,39.95
2019-05-22T04:31:52.044Z,38.60
2019-05-22T04:34:21.908Z,34.98
2019-05-22T04:36:52.006Z,37.90
2019-05-22T04:39:24.343Z,38.95
2019-05-22T04:41:55.622Z,36.95
2019-05-22T04:44:26.482Z,38.85
2019-05-22T04:46:56.617Z,40.88
2019-05-22T04:49:26.414Z,40.60
2019-05-22T04:51:56.447Z,36.17
2019-05-22T04:54:26.051Z,38.88
2019-05-22T04:56:55.677Z,39.65
2019-05-22T04:59:26.599Z,40.25
2019-05-22T05:01:56.891Z,40.58
2019-05-22T05:04:27.047Z,38.50
2019-05-22T05:06:56.689Z,35.92
2019-05-22T05:09:26.559Z,32.73
2019-05-22T05:11:56.494Z,33.58
2019-05-22T05:14:26.364Z,34.63
2019-05-22T05:16:56.040Z,34.45
2019-05-22T05:19:26.337Z,34.20
2019-05-22T05:21:55.912Z,30.30
2019-05-22T05:24:25.459Z,29.92
2019-05-22T05:26:55.841Z,28.85
2019-05-22T05:29:27.639Z,31.35
2019-05-22T05:31:59.087Z,29.07
2019-05-22T05:34:37.646Z,29.48
2019-05-22T05:37:08.153Z,32.10
2019-05-22T05:39:42.334Z,28.70
2019-05-22T05:42:12.076Z,31.40
2019-05-22T05:44:42.448Z,32.17
2019-05-22T05:47:12.289Z,28.52
2019-05-22T05:49:42.511Z,28.10
2019-05-22T05:52:13.435Z,25.35
2019-05-22T05:54:43.796Z,23.35
2019-05-22T05:57:34.523Z,23.75
2019-05-22T06:00:08.349Z,22.62
2019-05-22T06:02:37.999Z,25.80
2019-05-22T06:05:08.295Z,23.20
2019-05-22T06:07:38.564Z,22.75
2019-05-22T06:10:27.816Z,24.63
2019-05-22T06:12:58.434Z,27.35
2019-05-22T06:15:46.357Z,22.80
2019-05-22T06:18:27.814Z,25.70
2019-05-22T06:21:03.990Z,21.45
2019-05-22T06:23:32.762Z,23.22
2019-05-22T06:26:04.986Z,23.98
2019-05-22T06:28:38.228Z,22.27
2019-05-22T06:31:11.235Z,23.65
2019-05-22T06:33:40.730Z,23.25
2019-05-22T06:36:13.087Z,21.55
2019-05-22T06:38:52.496Z,25.88
2019-05-22T06:41:24.577Z,22.00
2019-05-22T06:44:07.099Z,20.77
2019-05-22T06:46:49.529Z,23.00
2019-05-22T06:49:34.168Z,19.85
2019-05-22T06:52:05.496Z,20.92
2019-05-22T06:54:35.162Z,22.05
2019-05-22T06:57:08.249Z,18.17
2019-05-22T06:59:38.574Z,16.93
2019-05-22T07:02:09.762Z,20.45
2019-05-22T07:04:40.169Z,16.20
2019-05-22T07:07:11.808Z,19.17
2019-05-22T07:09:41.960Z,19.62
2019-05-22T07:12:17.473Z,20.65
2019-05-22T07:15:07.091Z,19.57
2019-05-22T07:17:39.202Z,19.73
2019-05-22T07:20:10.975Z,20.30
2019-05-22T07:22:40.619Z,20.90
2019-05-22T07:25:10.957Z,21.75
2019-05-22T07:27:41.255Z,19.57
2019-05-22T07:30:11.245Z,20.40
2019-05-22T07:32:42.675Z,17.17
2019-05-22T07:35:13.289Z,14.25
2019-05-22T07:37:45.804Z,12.65
2019-05-22T07:40:15.659Z,13.18
2019-05-22T07:42:45.755Z,11.45
2019-05-22T07:45:16.408Z,12.03
2019-05-22T07:47:47.963Z,9.58
2019-05-22T07:50:19.512Z,9.90
2019-05-22T07:52:50.475Z,8.10
2019-05-22T07:55:22.277Z,10.15
2019-05-22T07:58:09.980Z,8.90
2019-05-22T08:00:42.758Z,10.05
2019-05-22T08:03:12.687Z,9.33
2019-05-22T08:05:45.282Z,9.03
2019-05-22T08:08:18.743Z,8.90
2019-05-22T08:10:47.895Z,9.25
2019-05-22T08:13:18.115Z,10.35
2019-05-22T08:15:48.216Z,10.18
2019-05-22T08:18:18.246Z,9.83
2019-05-22T08:20:48.543Z,9.05
2019-05-22T08:23:19.212Z,9.43
2019-05-22T08:25:48.859Z,10.53
2019-05-22T08:28:19.927Z,10.08
2019-05-22T08:30:50.074Z,9.95
2019-05-22T08:33:20.895Z,11.78
2019-05-22T08:35:52.956Z,10.88
2019-05-22T08:38:29.154Z,11.00
2019-05-22T08:41:01.307Z,11.80
2019-05-22T08:43:56.132Z,12.23
2019-05-22T08:46:07.545Z,14.65
2019-05-22T08:48:40.618Z,13.20
2019-05-22T08:51:10.895Z,12.70
2019-05-22T08:53:47.641Z,14.63
2019-05-22T08:56:13.198Z,12.30
2019-05-22T08:58:45.111Z,13.53
2019-05-22T09:01:15.782Z,13.18
2019-05-22T09:03:45.507Z,12.55
2019-05-22T09:06:16.018Z,12.58
2019-05-22T09:08:46.154Z,14.90
2019-05-22T09:11:15.770Z,12.37
2019-05-22T09:13:45.516Z,14.43
2019-05-22T09:16:16.857Z,12.88
2019-05-22T09:18:46.700Z,13.25
2019-05-22T09:21:16.708Z,12.25
2019-05-22T09:23:47.439Z,10.03
2019-05-22T09:26:18.387Z,11.90
2019-05-22T09:28:47.944Z,10.10
2019-05-22T09:31:18.576Z,11.93
2019-05-22T09:33:49.175Z,10.70
2019-05-22T09:36:18.634Z,11.38
2019-05-22T09:38:52.196Z,11.68
2019-05-22T09:41:20.210Z,11.63
2019-05-22T09:43:49.706Z,12.43
2019-05-22T09:46:19.376Z,14.00
2019-05-22T09:48:49.001Z,11.55
2019-05-22T09:51:19.801Z,11.45
2019-05-22T09:53:49.695Z,11.80
2019-05-22T09:56:19.315Z,13.15
2019-05-22T09:58:48.817Z,11.28
2019-05-22T10:01:18.510Z,12.43
2019-05-22T10:03:48.448Z,10.32
2019-05-22T10:06:21.528Z,11.33
2019-05-22T10:08:49.675Z,12.40
2019-05-22T10:11:20.831Z,14.55
2019-05-22T10:13:50.706Z,14.20
2019-05-22T10:16:20.747Z,15.18
2019-05-22T10:18:53.059Z,17.65
2019-05-22T10:21:22.320Z,17.10
2019-05-22T10:23:52.399Z,16.15
2019-05-22T10:26:22.109Z,15.32
2019-05-22T10:28:51.984Z,15.80
2019-05-22T10:31:22.863Z,16.57
2019-05-22T10:33:52.597Z,17.73
2019-05-22T10:36:22.194Z,16.07
2019-05-22T10:38:51.731Z,13.90
2019-05-22T10:41:22.218Z,12.18
2019-05-22T10:43:52.194Z,16.97
2019-05-22T10:46:22.346Z,11.45
2019-05-22T10:48:51.928Z,11.85
2019-05-22T10:51:21.793Z,12.15
2019-05-22T10:53:51.910Z,12.63
2019-05-22T10:56:21.368Z,12.45
2019-05-22T10:58:52.307Z,11.65
2019-05-22T11:01:23.367Z,11.90
2019-05-22T11:03:54.798Z,13.00
2019-05-22T11:06:25.001Z,10.32
2019-05-22T11:08:55.561Z,11.48
2019-05-22T11:11:25.258Z,9.85
2019-05-22T11:14:01.367Z,12.53
2019-05-22T11:16:27.966Z,13.13
2019-05-22T11:19:21.328Z,10.78
2019-05-22T11:22:13.491Z,11.25
2019-05-22T11:51:33.981Z,11.33
2019-05-22T11:55:07.298Z,11.28
2019-05-22T12:05:19.917Z,10.93
2019-05-22T12:20:11.513Z,15.10
2019-05-22T12:23:25.963Z,12.35
2019-05-22T12:26:03.977Z,14.75
2019-05-22T12:32:15.079Z,14.47
2019-05-22T12:38:12.458Z,13.50
2019-05-22T12:41:00.358Z,10.80
2019-05-22T12:47:00.785Z,11.22
2019-05-22T12:53:01.886Z,13.98
2019-05-22T12:55:35.807Z,9.90
2019-05-22T12:58:11.603Z,11.15
2019-05-22T13:00:43.929Z,11.03
2019-05-22T13:03:19.082Z,10.70
2019-05-22T13:06:15.223Z,10.30
2019-05-22T14:32:31.041Z,7.37
2019-05-22T14:34:59.550Z,7.47
2019-05-22T14:37:29.408Z,8.53
2019-05-22T14:39:59.080Z,8.78
2019-05-22T14:42:29.734Z,9.00
2019-05-22T14:44:59.484Z,9.30
2019-05-22T14:47:29.212Z,9.00
2019-05-22T14:49:58.841Z,7.92
2019-05-22T14:52:28.937Z,9.55
2019-05-22T14:54:58.891Z,6.90
2019-05-22T14:57:28.501Z,7.15
2019-05-22T14:59:58.244Z,6.25
2019-05-22T15:02:28.303Z,7.65
2019-05-22T15:04:58.433Z,6.75
2019-05-22T15:07:27.958Z,9.00
2019-05-22T15:09:57.833Z,6.50
2019-05-22T15:12:27.782Z,9.25
2019-05-22T15:14:58.714Z,9.18
2019-05-22T15:17:32.835Z,7.10
2019-05-22T15:19:59.675Z,7.08
2019-05-22T15:22:29.892Z,6.78
2019-05-22T15:24:59.629Z,7.83
2019-05-22T15:27:29.858Z,6.53
2019-05-22T15:29:59.783Z,9.55
2019-05-22T15:32:30.315Z,6.50
2019-05-22T15:35:00.035Z,6.60
2019-05-22T15:37:29.823Z,9.98
2019-05-22T15:39:59.391Z,7.72
2019-05-22T15:42:34.666Z,15.58
2019-05-22T15:45:07.322Z,6.72
2019-05-22T15:47:53.766Z,8.10
2019-05-22T15:50:11.059Z,7.83
2019-05-22T15:52:43.644Z,7.20
2019-05-22T15:55:14.549Z,7.45
2019-05-22T15:57:45.520Z,9.50
2019-05-22T16:00:19.060Z,8.93
2019-05-22T16:02:49.792Z,7.03
2019-05-22T16:05:20.926Z,7.40
2019-05-22T16:07:52.753Z,7.17
2019-05-22T16:10:24.145Z,6.60
2019-05-22T16:12:55.547Z,5.90
2019-05-22T16:15:26.903Z,8.33
2019-05-22T16:18:11.133Z,6.60
2019-05-22T16:20:32.847Z,7.53
2019-05-22T16:23:03.012Z,6.28
2019-05-22T16:25:33.695Z,9.45
2019-05-22T16:28:04.480Z,6.12
2019-05-22T16:30:35.010Z,8.75
2019-05-22T16:33:07.042Z,6.75
2019-05-22T16:35:36.828Z,7.47
2019-05-22T16:38:08.410Z,7.28
2019-05-22T16:40:39.640Z,7.85
2019-05-22T16:43:10.256Z,6.22
2019-05-22T16:45:40.114Z,5.30
2019-05-22T16:48:27.311Z,7.70
2019-05-22T16:50:42.602Z,5.85
2019-05-22T16:53:13.765Z,6.12
2019-05-22T16:55:44.104Z,6.15
2019-05-22T16:58:14.069Z,6.20
2019-05-22T17:00:45.793Z,6.85
2019-05-22T17:03:17.046Z,7.35
2019-05-22T17:05:46.797Z,7.17
2019-05-22T17:08:16.833Z,8.63
2019-05-22T17:10:46.843Z,5.67
2019-05-22T17:13:16.763Z,8.18
2019-05-22T17:15:47.430Z,7.67
2019-05-22T17:18:18.081Z,6.55
2019-05-22T17:20:48.217Z,5.08
2019-05-22T17:23:17.747Z,7.40
2019-05-22T17:25:47.836Z,6.00
2019-05-22T17:28:17.807Z,5.40
2019-05-22T17:30:47.867Z,6.85
2019-05-22T17:33:18.434Z,5.25
2019-05-22T17:35:48.131Z,5.08
2019-05-22T17:38:18.957Z,7.33
2019-05-22T17:40:50.162Z,5.58
2019-05-22T17:43:20.451Z,6.05
2019-05-22T17:45:51.862Z,6.80
2019-05-22T17:48:21.899Z,11.65
2019-05-22T17:50:53.559Z,8.98
2019-05-22T17:53:24.201Z,7.55
2019-05-22T17:55:54.451Z,8.60
2019-05-22T17:58:29.004Z,7.47
2019-05-22T18:00:56.282Z,5.60
2019-05-22T18:03:25.947Z,6.22
2019-05-22T18:05:55.773Z,5.97
2019-05-22T18:08:26.405Z,6.03
2019-05-22T18:10:58.063Z,5.92
2019-05-22T18:13:28.949Z,7.75
2019-05-22T18:15:58.790Z,6.35
2019-05-22T18:18:28.493Z,5.97
2019-05-22T18:20:58.185Z,6.53
2019-05-22T18:23:27.735Z,5.70
2019-05-22T18:25:57.295Z,7.97
2019-05-22T18:28:27.426Z,6.72
2019-05-22T18:30:57.305Z,7.50
2019-05-22T18:33:28.199Z,7.00
2019-05-22T18:35:59.193Z,7.00
2019-05-22T18:38:28.744Z,6.37
2019-05-22T18:40:59.824Z,8.20
2019-05-22T18:43:29.604Z,6.05
2019-05-22T18:45:59.247Z,6.03
2019-05-22T18:48:28.799Z,8.30
2019-05-22T18:50:58.585Z,6.10
2019-05-22T18:53:28.249Z,5.33
2019-05-22T18:55:57.916Z,6.30
2019-05-22T18:58:28.206Z,8.00
2019-05-22T19:00:58.832Z,6.60
2019-05-22T19:03:28.459Z,13.80
2019-05-22T19:05:58.158Z,8.15
2019-05-22T19:08:28.212Z,8.60
2019-05-22T19:10:58.741Z,6.03
2019-05-22T19:13:28.380Z,5.87
2019-05-22T19:15:57.854Z,6.65
2019-05-22T19:18:27.554Z,6.85
2019-05-22T19:20:57.040Z,6.30
2019-05-22T19:23:26.604Z,7.00
2019-05-22T19:25:56.338Z,9.53
2019-05-22T19:28:41.979Z,6.87
2019-05-22T19:30:57.559Z,8.03
2019-05-22T19:33:27.302Z,6.72
2019-05-22T19:35:56.860Z,8.65
2019-05-22T19:38:27.253Z,9.60
2019-05-22T19:40:57.149Z,8.58
2019-05-22T19:43:26.697Z,7.97
2019-05-22T19:45:56.851Z,6.35
2019-05-22T19:48:28.541Z,6.30
2019-05-22T19:51:01.770Z,7.17
2019-05-22T19:53:31.087Z,9.20
2019-05-22T19:56:00.821Z,9.60
2019-05-22T19:58:30.766Z,6.83
2019-05-22T20:01:00.494Z,6.65
2019-05-22T20:03:30.303Z,7.83
2019-05-22T20:06:00.465Z,8.23
2019-05-22T20:08:30.362Z,6.78
2019-05-22T20:11:00.294Z,9.48
2019-05-22T20:13:30.319Z,6.55
2019-05-22T20:15:59.912Z,8.05
2019-05-22T20:18:30.157Z,7.40
2019-05-22T20:21:00.583Z,7.33
2019-05-22T20:23:35.774Z,9.75
2019-05-22T20:26:02.524Z,10.38
2019-05-22T20:28:32.802Z,9.53
2019-05-22T20:31:03.030Z,7.25
2019-05-22T20:33:33.059Z,8.35
2019-05-22T20:36:03.261Z,10.90
2019-05-22T20:38:33.780Z,10.23
2019-05-22T20:41:03.690Z,9.55
2019-05-22T20:43:34.063Z,10.32
2019-05-22T20:46:05.929Z,9.15
2019-05-22T20:48:36.052Z,9.98
2019-05-22T20:51:07.742Z,12.75
2019-05-22T20:53:52.990Z,9.18
2019-05-22T20:56:11.476Z,13.08
2019-05-22T20:58:43.251Z,8.40
2019-05-22T21:01:13.572Z,10.48
2019-05-22T21:03:44.007Z,10.43
2019-05-22T21:06:15.701Z,9.15
2019-05-22T21:08:46.595Z,9.98
2019-05-22T21:11:17.621Z,11.05
2019-05-22T21:13:47.655Z,10.95
2019-05-22T21:16:17.767Z,9.55
2019-05-22T21:18:52.272Z,10.63
2019-05-22T21:21:23.688Z,9.63
2019-05-22T21:24:07.718Z,11.35
2019-05-22T21:26:25.679Z,11.38
2019-05-22T21:28:55.503Z,10.58
2019-05-22T21:31:25.666Z,12.45
2019-05-22T21:33:56.913Z,11.63
2019-05-22T21:36:29.619Z,15.35
2019-05-22T21:38:59.750Z,14.53
2019-05-22T21:41:30.307Z,9.88
2019-05-22T21:44:00.083Z,13.03
2019-05-22T21:46:30.122Z,10.28
2019-05-22T21:49:00.113Z,10.38
2019-05-22T21:51:29.976Z,10.43
2019-05-22T21:53:59.506Z,9.03
2019-05-22T21:56:30.472Z,10.82
2019-05-22T21:59:00.043Z,10.48
2019-05-22T22:01:34.893Z,8.25
2019-05-22T22:04:06.056Z,10.85
2019-05-22T22:06:35.971Z,9.28
2019-05-22T22:09:08.316Z,10.15
2019-05-22T22:11:38.786Z,10.72
2019-05-22T22:14:09.033Z,9.93
2019-05-22T22:16:39.790Z,10.95
2019-05-22T22:19:10.986Z,10.08
2019-05-22T22:21:40.803Z,11.65
2019-05-22T22:24:10.894Z,10.50
2019-05-22T22:26:41.073Z,9.45
2019-05-22T22:29:10.649Z,12.23
2019-05-22T22:31:41.482Z,12.45
2019-05-22T22:34:17.479Z,9.25
2019-05-22T22:36:49.466Z,11.45
2019-05-22T22:39:21.552Z,10.70
2019-05-22T22:41:52.354Z,10.13
2019-05-22T22:44:23.179Z,9.50
2019-05-22T22:46:57.466Z,10.28
2019-05-22T22:49:28.128Z,10.20
2019-05-22T22:51:59.227Z,9.68
2019-05-22T22:54:29.152Z,8.28
2019-05-22T22:57:00.059Z,10.30
2019-05-22T22:59:29.853Z,9.35
2019-05-22T23:02:01.657Z,8.53
2019-05-22T23:04:32.107Z,8.58
2019-05-22T23:07:06.219Z,8.75
2019-05-22T23:09:38.885Z,8.58
2019-05-22T23:12:09.999Z,9.15
2019-05-22T23:14:42.493Z,10.43
2019-05-22T23:17:12.752Z,9.58
2019-05-22T23:19:43.080Z,9.55
2019-05-22T23:22:13.355Z,11.33
2019-05-22T23:24:43.887Z,9.80
2019-05-22T23:27:15.262Z,10.23
2019-05-22T23:29:45.401Z,12.15
2019-05-22T23:32:17.817Z,12.98
2019-05-22T23:34:48.427Z,9.98
2019-05-22T23:37:20.448Z,9.18
2019-05-22T23:39:53.106Z,9.98
2019-05-22T23:42:25.743Z,9.10
2019-05-22T23:44:57.115Z,9.78
2019-05-22T23:47:28.111Z,9.43
2019-05-22T23:49:58.077Z,10.05
2019-05-22T23:52:27.978Z,8.88
2019-05-22T23:54:58.012Z,10.13
2019-05-22T23:57:28.300Z,9.23
2019-05-22T23:59:58.919Z,12.13
